sensor_id;sensor_type;location;lat;lon;timestamp;P1;durP1;ratioP1;P2;durP2;ratioP2
8291;SDS011;4184;42.724;23.308;2022-09-02T00:00:51;6.93;;;6.27;;
8291;SDS011;4184;42.724;23.308;2022-09-02T00:03:26;7.17;;;6.57;;
8291;SDS011;4184;42.724;23.308;2022-09-02T00:05:55;8.43;;;6.50;;
8291;SDS011;4184;42.724;23.308;2022-09-02T00:08:23;7.10;;;6.40;;
8291;SDS011;4184;42.724;23.308;2022-09-02T00:10:51;7.07;;;6.37;;
8291;SDS011;4184;42.724;23.308;2022-09-02T00:13:20;8.20;;;6.77;;
8291;SDS011;4184;42.724;23.308;2022-09-02T00:15:47;7.40;;;6.70;;
8291;SDS011;4184;42.724;23.308;2022-09-02T00:18:16;7.60;;;6.90;;
8291;SDS011;4184;42.724;23.308;2022-09-02T00:20:46;7.90;;;7.10;;
8291;SDS011;4184;42.724;23.308;2022-09-02T00:23:14;8.17;;;7.37;;
8291;SDS011;4184;42.724;23.308;2022-09-02T00:25:43;8.87;;;7.97;;
8291;SDS011;4184;42.724;23.308;2022-09-02T00:28:11;8.10;;;7.17;;
8291;SDS011;4184;42.724;23.308;2022-09-02T00:30:40;8.17;;;7.37;;
8291;SDS011;4184;42.724;23.308;2022-09-02T00:33:08;7.90;;;7.20;;
8291;SDS011;4184;42.724;23.308;2022-09-02T00:35:37;10.33;;;7.70;;
8291;SDS011;4184;42.724;23.308;2022-09-02T00:38:06;8.50;;;7.70;;
8291;SDS011;4184;42.724;23.308;2022-09-02T00:40:34;7.60;;;6.90;;
8291;SDS011;4184;42.724;23.308;2022-09-02T00:43:04;8.27;;;6.87;;
8291;SDS011;4184;42.724;23.308;2022-09-02T00:45:33;7.17;;;6.47;;
8291;SDS011;4184;42.724;23.308;2022-09-02T00:48:02;7.73;;;7.03;;
8291;SDS011;4184;42.724;23.308;2022-09-02T00:50:32;7.30;;;6.60;;
8291;SDS011;4184;42.724;23.308;2022-09-02T00:53:02;6.97;;;6.10;;
8291;SDS011;4184;42.724;23.308;2022-09-02T00:55:35;6.70;;;6.07;;
8291;SDS011;4184;42.724;23.308;2022-09-02T00:58:07;7.50;;;6.87;;
8291;SDS011;4184;42.724;23.308;2022-09-02T01:00:41;7.67;;;6.87;;
8291;SDS011;4184;42.724;23.308;2022-09-02T01:03:11;7.40;;;6.70;;
8291;SDS011;4184;42.724;23.308;2022-09-02T01:05:42;7.13;;;6.53;;
8291;SDS011;4184;42.724;23.308;2022-09-02T01:08:11;6.60;;;6.00;;
8291;SDS011;4184;42.724;23.308;2022-09-02T01:10:41;9.27;;;7.17;;
8291;SDS011;4184;42.724;23.308;2022-09-02T01:13:09;7.27;;;6.50;;
8291;SDS011;4184;42.724;23.308;2022-09-02T01:15:40;6.77;;;6.17;;
8291;SDS011;4184;42.724;23.308;2022-09-02T01:18:12;6.80;;;6.20;;
8291;SDS011;4184;42.724;23.308;2022-09-02T01:20:44;7.10;;;6.40;;
8291;SDS011;4184;42.724;23.308;2022-09-02T01:23:14;6.63;;;6.03;;
8291;SDS011;4184;42.724;23.308;2022-09-02T01:25:43;6.73;;;6.13;;
8291;SDS011;4184;42.724;23.308;2022-09-02T01:28:14;7.27;;;6.67;;
8291;SDS011;4184;42.724;23.308;2022-09-02T01:30:45;6.73;;;6.23;;
8291;SDS011;4184;42.724;23.308;2022-09-02T01:33:14;6.03;;;5.50;;
8291;SDS011;4184;42.724;23.308;2022-09-02T01:35:42;6.40;;;5.83;;
8291;SDS011;4184;42.724;23.308;2022-09-02T01:38:09;6.00;;;5.40;;
8291;SDS011;4184;42.724;23.308;2022-09-02T01:40:39;6.30;;;5.70;;
8291;SDS011;4184;42.724;23.308;2022-09-02T01:43:07;5.67;;;5.17;;
8291;SDS011;4184;42.724;23.308;2022-09-02T01:45:37;5.50;;;5.00;;
8291;SDS011;4184;42.724;23.308;2022-09-02T01:48:07;5.43;;;4.93;;
8291;SDS011;4184;42.724;23.308;2022-09-02T01:50:36;5.50;;;5.00;;
8291;SDS011;4184;42.724;23.308;2022-09-02T01:53:05;5.07;;;4.67;;
8291;SDS011;4184;42.724;23.308;2022-09-02T01:55:33;4.83;;;4.37;;
8291;SDS011;4184;42.724;23.308;2022-09-02T01:58:02;5.10;;;4.70;;
8291;SDS011;4184;42.724;23.308;2022-09-02T02:00:30;5.03;;;4.63;;
8291;SDS011;4184;42.724;23.308;2022-09-02T02:02:57;5.50;;;5.03;;
8291;SDS011;4184;42.724;23.308;2022-09-02T02:05:25;4.80;;;4.40;;
8291;SDS011;4184;42.724;23.308;2022-09-02T02:07:53;4.63;;;4.23;;
8291;SDS011;4184;42.724;23.308;2022-09-02T02:10:20;4.30;;;3.90;;
8291;SDS011;4184;42.724;23.308;2022-09-02T02:12:48;4.37;;;4.00;;
8291;SDS011;4184;42.724;23.308;2022-09-02T02:15:18;5.17;;;4.20;;
8291;SDS011;4184;42.724;23.308;2022-09-02T02:17:47;4.80;;;3.57;;
8291;SDS011;4184;42.724;23.308;2022-09-02T02:20:15;4.40;;;3.97;;
8291;SDS011;4184;42.724;23.308;2022-09-02T02:22:45;4.20;;;3.80;;
8291;SDS011;4184;42.724;23.308;2022-09-02T02:25:13;4.83;;;4.20;;
8291;SDS011;4184;42.724;23.308;2022-09-02T02:27:42;4.13;;;3.73;;
8291;SDS011;4184;42.724;23.308;2022-09-02T02:30:11;4.43;;;4.03;;
8291;SDS011;4184;42.724;23.308;2022-09-02T02:32:42;3.87;;;3.57;;
8291;SDS011;4184;42.724;23.308;2022-09-02T02:35:12;4.03;;;3.67;;
8291;SDS011;4184;42.724;23.308;2022-09-02T02:37:41;4.30;;;3.90;;
8291;SDS011;4184;42.724;23.308;2022-09-02T02:40:09;4.20;;;3.80;;
8291;SDS011;4184;42.724;23.308;2022-09-02T02:42:37;4.40;;;4.00;;
8291;SDS011;4184;42.724;23.308;2022-09-02T02:45:05;3.70;;;3.40;;
8291;SDS011;4184;42.724;23.308;2022-09-02T02:47:36;3.90;;;3.60;;
8291;SDS011;4184;42.724;23.308;2022-09-02T02:50:07;4.60;;;3.60;;
8291;SDS011;4184;42.724;23.308;2022-09-02T02:52:37;3.87;;;3.57;;
8291;SDS011;4184;42.724;23.308;2022-09-02T02:55:06;4.33;;;4.03;;
8291;SDS011;4184;42.724;23.308;2022-09-02T02:57:35;4.60;;;4.23;;
8291;SDS011;4184;42.724;23.308;2022-09-02T03:00:05;4.23;;;3.93;;
8291;SDS011;4184;42.724;23.308;2022-09-02T03:02:37;4.53;;;4.13;;
8291;SDS011;4184;42.724;23.308;2022-09-02T03:05:05;4.40;;;4.00;;
8291;SDS011;4184;42.724;23.308;2022-09-02T03:07:35;4.50;;;4.10;;
8291;SDS011;4184;42.724;23.308;2022-09-02T03:10:03;5.00;;;4.47;;
8291;SDS011;4184;42.724;23.308;2022-09-02T03:12:32;4.50;;;4.10;;
8291;SDS011;4184;42.724;23.308;2022-09-02T03:15:00;4.70;;;4.30;;
8291;SDS011;4184;42.724;23.308;2022-09-02T03:17:28;4.87;;;4.37;;
8291;SDS011;4184;42.724;23.308;2022-09-02T03:19:58;4.60;;;4.20;;
8291;SDS011;4184;42.724;23.308;2022-09-02T03:22:28;5.40;;;5.00;;
8291;SDS011;4184;42.724;23.308;2022-09-02T03:24:55;4.30;;;4.00;;
8291;SDS011;4184;42.724;23.308;2022-09-02T03:27:23;4.93;;;4.53;;
8291;SDS011;4184;42.724;23.308;2022-09-02T03:29:50;5.23;;;4.80;;
8291;SDS011;4184;42.724;23.308;2022-09-02T03:32:18;4.93;;;4.53;;
8291;SDS011;4184;42.724;23.308;2022-09-02T03:34:45;6.57;;;5.07;;
8291;SDS011;4184;42.724;23.308;2022-09-02T03:37:16;5.50;;;5.00;;
8291;SDS011;4184;42.724;23.308;2022-09-02T03:39:45;5.77;;;5.17;;
8291;SDS011;4184;42.724;23.308;2022-09-02T03:42:13;6.30;;;5.20;;
8291;SDS011;4184;42.724;23.308;2022-09-02T03:44:41;6.10;;;5.60;;
8291;SDS011;4184;42.724;23.308;2022-09-02T03:47:09;5.57;;;5.13;;
8291;SDS011;4184;42.724;23.308;2022-09-02T03:49:38;6.07;;;5.47;;
8291;SDS011;4184;42.724;23.308;2022-09-02T03:52:06;5.37;;;4.83;;
8291;SDS011;4184;42.724;23.308;2022-09-02T03:54:33;5.60;;;5.10;;
8291;SDS011;4184;42.724;23.308;2022-09-02T03:57:02;5.03;;;4.63;;
8291;SDS011;4184;42.724;23.308;2022-09-02T03:59:30;5.30;;;4.80;;
8291;SDS011;4184;42.724;23.308;2022-09-02T04:01:58;5.53;;;5.03;;
8291;SDS011;4184;42.724;23.308;2022-09-02T04:04:27;5.77;;;4.93;;
8291;SDS011;4184;42.724;23.308;2022-09-02T04:06:56;6.80;;;5.17;;
8291;SDS011;4184;42.724;23.308;2022-09-02T04:09:31;5.57;;;5.07;;
8291;SDS011;4184;42.724;23.308;2022-09-02T04:11:59;5.37;;;4.87;;
8291;SDS011;4184;42.724;23.308;2022-09-02T04:14:29;5.77;;;5.17;;
8291;SDS011;4184;42.724;23.308;2022-09-02T04:16:56;5.20;;;4.70;;
8291;SDS011;4184;42.724;23.308;2022-09-02T04:19:24;5.93;;;5.23;;
8291;SDS011;4184;42.724;23.308;2022-09-02T04:21:52;5.30;;;4.80;;
8291;SDS011;4184;42.724;23.308;2022-09-02T04:24:19;5.30;;;4.80;;
8291;SDS011;4184;42.724;23.308;2022-09-02T04:26:46;5.67;;;5.07;;
8291;SDS011;4184;42.724;23.308;2022-09-02T04:29:17;5.40;;;4.90;;
8291;SDS011;4184;42.724;23.308;2022-09-02T04:31:46;4.80;;;4.40;;
8291;SDS011;4184;42.724;23.308;2022-09-02T04:34:13;5.40;;;5.00;;
8291;SDS011;4184;42.724;23.308;2022-09-02T04:36:41;7.03;;;4.90;;
8291;SDS011;4184;42.724;23.308;2022-09-02T04:39:08;4.87;;;4.47;;
8291;SDS011;4184;42.724;23.308;2022-09-02T04:41:39;6.17;;;5.10;;
8291;SDS011;4184;42.724;23.308;2022-09-02T04:44:06;5.03;;;4.50;;
8291;SDS011;4184;42.724;23.308;2022-09-02T04:46:34;5.20;;;4.80;;
8291;SDS011;4184;42.724;23.308;2022-09-02T04:49:03;5.30;;;4.80;;
8291;SDS011;4184;42.724;23.308;2022-09-02T04:51:32;5.10;;;4.70;;
8291;SDS011;4184;42.724;23.308;2022-09-02T04:54:00;5.07;;;4.67;;
8291;SDS011;4184;42.724;23.308;2022-09-02T04:56:29;5.10;;;4.63;;
8291;SDS011;4184;42.724;23.308;2022-09-02T04:58:57;5.47;;;4.97;;
8291;SDS011;4184;42.724;23.308;2022-09-02T05:01:25;4.80;;;4.40;;
8291;SDS011;4184;42.724;23.308;2022-09-02T05:03:56;4.87;;;4.47;;
8291;SDS011;4184;42.724;23.308;2022-09-02T05:06:28;5.23;;;4.77;;
8291;SDS011;4184;42.724;23.308;2022-09-02T05:08:57;4.93;;;4.40;;
8291;SDS011;4184;42.724;23.308;2022-09-02T05:11:26;4.93;;;4.53;;
8291;SDS011;4184;42.724;23.308;2022-09-02T05:13:56;4.87;;;4.47;;
8291;SDS011;4184;42.724;23.308;2022-09-02T05:16:26;5.47;;;5.07;;
8291;SDS011;4184;42.724;23.308;2022-09-02T05:18:56;4.90;;;4.50;;
8291;SDS011;4184;42.724;23.308;2022-09-02T05:21:24;4.93;;;4.53;;
8291;SDS011;4184;42.724;23.308;2022-09-02T05:23:53;5.90;;;4.90;;
8291;SDS011;4184;42.724;23.308;2022-09-02T05:26:22;4.97;;;4.57;;
8291;SDS011;4184;42.724;23.308;2022-09-02T05:28:50;4.93;;;4.53;;
8291;SDS011;4184;42.724;23.308;2022-09-02T05:31:18;4.80;;;4.40;;
8291;SDS011;4184;42.724;23.308;2022-09-02T05:33:47;6.00;;;5.40;;
8291;SDS011;4184;42.724;23.308;2022-09-02T05:36:15;5.47;;;4.90;;
8291;SDS011;4184;42.724;23.308;2022-09-02T05:38:44;5.67;;;5.17;;
8291;SDS011;4184;42.724;23.308;2022-09-02T05:41:15;5.53;;;5.03;;
8291;SDS011;4184;42.724;23.308;2022-09-02T05:43:47;5.40;;;4.90;;
8291;SDS011;4184;42.724;23.308;2022-09-02T05:46:16;6.17;;;5.33;;
8291;SDS011;4184;42.724;23.308;2022-09-02T05:48:46;7.43;;;5.50;;
8291;SDS011;4184;42.724;23.308;2022-09-02T05:51:36;8.83;;;5.77;;
8291;SDS011;4184;42.724;23.308;2022-09-02T05:54:07;8.20;;;5.63;;
8291;SDS011;4184;42.724;23.308;2022-09-02T05:56:39;13.97;;;6.00;;
8291;SDS011;4184;42.724;23.308;2022-09-02T05:59:08;14.00;;;6.17;;
8291;SDS011;4184;42.724;23.308;2022-09-02T06:01:36;10.20;;;6.00;;
8291;SDS011;4184;42.724;23.308;2022-09-02T06:04:04;8.70;;;5.83;;
8291;SDS011;4184;42.724;23.308;2022-09-02T06:06:32;9.00;;;6.03;;
8291;SDS011;4184;42.724;23.308;2022-09-02T06:09:02;8.50;;;5.83;;
8291;SDS011;4184;42.724;23.308;2022-09-02T06:11:32;9.33;;;5.53;;
8291;SDS011;4184;42.724;23.308;2022-09-02T06:14:05;8.07;;;5.60;;
8291;SDS011;4184;42.724;23.308;2022-09-02T06:16:33;6.63;;;5.47;;
8291;SDS011;4184;42.724;23.308;2022-09-02T06:19:01;5.70;;;5.10;;
8291;SDS011;4184;42.724;23.308;2022-09-02T06:21:29;5.60;;;5.10;;
8291;SDS011;4184;42.724;23.308;2022-09-02T06:23:58;5.57;;;5.07;;
8291;SDS011;4184;42.724;23.308;2022-09-02T06:26:25;7.70;;;5.03;;
8291;SDS011;4184;42.724;23.308;2022-09-02T06:28:53;6.77;;;5.20;;
8291;SDS011;4184;42.724;23.308;2022-09-02T06:31:22;5.10;;;4.60;;
8291;SDS011;4184;42.724;23.308;2022-09-02T06:33:54;4.97;;;4.57;;
8291;SDS011;4184;42.724;23.308;2022-09-02T06:36:23;5.03;;;4.53;;
8291;SDS011;4184;42.724;23.308;2022-09-02T06:38:53;5.83;;;5.33;;
8291;SDS011;4184;42.724;23.308;2022-09-02T06:41:23;5.43;;;4.73;;
8291;SDS011;4184;42.724;23.308;2022-09-02T06:43:53;5.77;;;5.17;;
8291;SDS011;4184;42.724;23.308;2022-09-02T06:46:25;6.73;;;5.00;;
8291;SDS011;4184;42.724;23.308;2022-09-02T06:48:55;5.90;;;4.60;;
8291;SDS011;4184;42.724;23.308;2022-09-02T06:51:24;5.40;;;4.90;;
8291;SDS011;4184;42.724;23.308;2022-09-02T06:53:52;5.87;;;5.27;;
8291;SDS011;4184;42.724;23.308;2022-09-02T06:56:20;9.23;;;8.20;;
8291;SDS011;4184;42.724;23.308;2022-09-02T06:58:48;7.00;;;6.03;;
8291;SDS011;4184;42.724;23.308;2022-09-02T07:01:16;7.00;;;6.40;;
8291;SDS011;4184;42.724;23.308;2022-09-02T07:03:46;7.87;;;6.13;;
8291;SDS011;4184;42.724;23.308;2022-09-02T07:06:34;6.90;;;6.20;;
8291;SDS011;4184;42.724;23.308;2022-09-02T07:09:03;6.80;;;6.17;;
8291;SDS011;4184;42.724;23.308;2022-09-02T07:11:31;6.63;;;6.03;;
8291;SDS011;4184;42.724;23.308;2022-09-02T07:13:59;14.70;;;8.77;;
8291;SDS011;4184;42.724;23.308;2022-09-02T07:16:28;14.23;;;9.77;;
8291;SDS011;4184;42.724;23.308;2022-09-02T07:18:58;11.10;;;8.83;;
8291;SDS011;4184;42.724;23.308;2022-09-02T07:21:26;12.40;;;8.13;;
8291;SDS011;4184;42.724;23.308;2022-09-02T07:23:54;12.47;;;8.77;;
8291;SDS011;4184;42.724;23.308;2022-09-02T07:26:23;12.10;;;8.23;;
8291;SDS011;4184;42.724;23.308;2022-09-02T07:28:51;12.73;;;8.27;;
8291;SDS011;4184;42.724;23.308;2022-09-02T07:31:19;12.20;;;6.90;;
8291;SDS011;4184;42.724;23.308;2022-09-02T07:33:47;9.93;;;7.30;;
8291;SDS011;4184;42.724;23.308;2022-09-02T07:36:16;10.03;;;7.83;;
8291;SDS011;4184;42.724;23.308;2022-09-02T07:38:45;9.47;;;7.57;;
8291;SDS011;4184;42.724;23.308;2022-09-02T07:41:13;7.87;;;7.07;;
8291;SDS011;4184;42.724;23.308;2022-09-02T07:43:41;8.80;;;7.10;;
8291;SDS011;4184;42.724;23.308;2022-09-02T07:46:09;12.33;;;7.57;;
8291;SDS011;4184;42.724;23.308;2022-09-02T07:48:36;8.87;;;7.33;;
8291;SDS011;4184;42.724;23.308;2022-09-02T07:51:06;8.30;;;6.70;;
8291;SDS011;4184;42.724;23.308;2022-09-02T07:53:36;8.30;;;6.13;;
8291;SDS011;4184;42.724;23.308;2022-09-02T07:56:03;8.37;;;6.23;;
8291;SDS011;4184;42.724;23.308;2022-09-02T07:58:31;6.87;;;6.27;;
8291;SDS011;4184;42.724;23.308;2022-09-02T08:00:59;6.80;;;6.10;;
8291;SDS011;4184;42.724;23.308;2022-09-02T08:03:27;8.07;;;6.50;;
8291;SDS011;4184;42.724;23.308;2022-09-02T08:05:55;7.47;;;6.07;;
8291;SDS011;4184;42.724;23.308;2022-09-02T08:08:23;9.83;;;6.17;;
8291;SDS011;4184;42.724;23.308;2022-09-02T08:10:53;7.23;;;6.13;;
8291;SDS011;4184;42.724;23.308;2022-09-02T08:13:21;6.83;;;6.13;;
8291;SDS011;4184;42.724;23.308;2022-09-02T08:15:49;6.97;;;6.03;;
8291;SDS011;4184;42.724;23.308;2022-09-02T08:18:18;6.47;;;5.80;;
8291;SDS011;4184;42.724;23.308;2022-09-02T08:20:46;11.67;;;6.70;;
8291;SDS011;4184;42.724;23.308;2022-09-02T08:23:14;6.70;;;6.00;;
8291;SDS011;4184;42.724;23.308;2022-09-02T08:25:42;11.43;;;6.73;;
8291;SDS011;4184;42.724;23.308;2022-09-02T08:28:11;9.27;;;5.70;;
8291;SDS011;4184;42.724;23.308;2022-09-02T08:30:40;6.30;;;5.40;;
8291;SDS011;4184;42.724;23.308;2022-09-02T08:33:07;6.40;;;5.73;;
8291;SDS011;4184;42.724;23.308;2022-09-02T08:35:35;6.07;;;5.33;;
8291;SDS011;4184;42.724;23.308;2022-09-02T08:38:06;6.67;;;5.60;;
8291;SDS011;4184;42.724;23.308;2022-09-02T08:40:35;6.13;;;5.27;;
8291;SDS011;4184;42.724;23.308;2022-09-02T08:43:09;5.53;;;4.97;;
8291;SDS011;4184;42.724;23.308;2022-09-02T08:45:53;6.27;;;5.07;;
8291;SDS011;4184;42.724;23.308;2022-09-02T08:48:25;5.70;;;4.90;;
8291;SDS011;4184;42.724;23.308;2022-09-02T08:51:02;5.60;;;5.10;;
8291;SDS011;4184;42.724;23.308;2022-09-02T08:53:34;6.83;;;5.00;;
8291;SDS011;4184;42.724;23.308;2022-09-02T08:56:10;5.60;;;4.93;;
8291;SDS011;4184;42.724;23.308;2022-09-02T08:58:44;6.10;;;4.70;;
8291;SDS011;4184;42.724;23.308;2022-09-02T09:01:19;5.80;;;4.77;;
8291;SDS011;4184;42.724;23.308;2022-09-02T09:04:03;6.53;;;4.57;;
8291;SDS011;4184;42.724;23.308;2022-09-02T09:06:51;5.50;;;4.93;;
8291;SDS011;4184;42.724;23.308;2022-09-02T09:09:29;7.60;;;4.80;;
8291;SDS011;4184;42.724;23.308;2022-09-02T09:12:12;5.50;;;4.97;;
8291;SDS011;4184;42.724;23.308;2022-09-02T09:14:48;5.10;;;4.60;;
8291;SDS011;4184;42.724;23.308;2022-09-02T09:17:24;4.93;;;4.40;;
8291;SDS011;4184;42.724;23.308;2022-09-02T09:19:57;4.30;;;3.90;;
8291;SDS011;4184;42.724;23.308;2022-09-02T09:22:30;4.80;;;4.40;;
8291;SDS011;4184;42.724;23.308;2022-09-02T09:25:01;4.57;;;4.03;;
8291;SDS011;4184;42.724;23.308;2022-09-02T09:27:32;5.53;;;4.40;;
8291;SDS011;4184;42.724;23.308;2022-09-02T09:30:01;5.10;;;3.90;;
8291;SDS011;4184;42.724;23.308;2022-09-02T09:32:33;5.00;;;4.40;;
8291;SDS011;4184;42.724;23.308;2022-09-02T09:35:06;5.60;;;3.97;;
8291;SDS011;4184;42.724;23.308;2022-09-02T09:37:35;5.63;;;4.00;;
8291;SDS011;4184;42.724;23.308;2022-09-02T09:40:24;4.80;;;4.23;;
8291;SDS011;4184;42.724;23.308;2022-09-02T09:42:55;4.20;;;3.90;;
8291;SDS011;4184;42.724;23.308;2022-09-02T09:45:29;5.60;;;4.13;;
8291;SDS011;4184;42.724;23.308;2022-09-02T09:48:06;4.37;;;3.97;;
8291;SDS011;4184;42.724;23.308;2022-09-02T09:50:47;4.83;;;4.33;;
8291;SDS011;4184;42.724;23.308;2022-09-02T09:53:30;3.97;;;3.67;;
8291;SDS011;4184;42.724;23.308;2022-09-02T09:56:00;4.37;;;4.07;;
8291;SDS011;4184;42.724;23.308;2022-09-02T09:58:31;4.43;;;4.03;;
8291;SDS011;4184;42.724;23.308;2022-09-02T10:01:11;4.03;;;3.73;;
8291;SDS011;4184;42.724;23.308;2022-09-02T10:03:42;3.87;;;3.57;;
8291;SDS011;4184;42.724;23.308;2022-09-02T10:06:18;3.40;;;3.10;;
8291;SDS011;4184;42.724;23.308;2022-09-02T10:08:49;4.77;;;4.00;;
8291;SDS011;4184;42.724;23.308;2022-09-02T10:11:21;4.47;;;4.03;;
8291;SDS011;4184;42.724;23.308;2022-09-02T10:13:50;4.30;;;3.83;;
8291;SDS011;4184;42.724;23.308;2022-09-02T10:16:28;3.60;;;3.30;;
8291;SDS011;4184;42.724;23.308;2022-09-02T10:19:09;3.60;;;3.30;;
8291;SDS011;4184;42.724;23.308;2022-09-02T10:24:55;5.83;;;3.90;;
8291;SDS011;4184;42.724;23.308;2022-09-02T10:27:33;4.00;;;3.70;;
8291;SDS011;4184;42.724;23.308;2022-09-02T10:30:07;4.33;;;4.00;;
8291;SDS011;4184;42.724;23.308;2022-09-02T10:32:51;4.97;;;4.43;;
8291;SDS011;4184;42.724;23.308;2022-09-02T10:35:35;5.20;;;4.70;;
8291;SDS011;4184;42.724;23.308;2022-09-02T10:38:15;7.23;;;5.10;;
8291;SDS011;4184;42.724;23.308;2022-09-02T10:41:14;5.93;;;5.30;;
8291;SDS011;4184;42.724;23.308;2022-09-02T10:43:59;5.57;;;5.00;;
8291;SDS011;4184;42.724;23.308;2022-09-02T10:46:42;4.90;;;4.50;;
8291;SDS011;4184;42.724;23.308;2022-09-02T10:49:24;4.77;;;4.23;;
8291;SDS011;4184;42.724;23.308;2022-09-02T10:52:09;5.00;;;4.53;;
8291;SDS011;4184;42.724;23.308;2022-09-02T10:54:56;4.37;;;4.00;;
8291;SDS011;4184;42.724;23.308;2022-09-02T10:57:31;5.10;;;4.60;;
8291;SDS011;4184;42.724;23.308;2022-09-02T11:00:13;4.67;;;4.27;;
8291;SDS011;4184;42.724;23.308;2022-09-02T11:02:44;4.60;;;4.20;;
8291;SDS011;4184;42.724;23.308;2022-09-02T11:05:18;4.53;;;4.23;;
8291;SDS011;4184;42.724;23.308;2022-09-02T11:07:50;5.10;;;4.60;;
8291;SDS011;4184;42.724;23.308;2022-09-02T11:10:24;5.00;;;4.47;;
8291;SDS011;4184;42.724;23.308;2022-09-02T11:12:58;4.77;;;4.37;;
8291;SDS011;4184;42.724;23.308;2022-09-02T11:15:33;4.60;;;4.20;;
8291;SDS011;4184;42.724;23.308;2022-09-02T11:18:11;4.90;;;4.50;;
8291;SDS011;4184;42.724;23.308;2022-09-02T11:20:47;4.90;;;4.50;;
8291;SDS011;4184;42.724;23.308;2022-09-02T11:23:26;5.80;;;5.20;;
8291;SDS011;4184;42.724;23.308;2022-09-02T11:26:03;5.33;;;4.87;;
8291;SDS011;4184;42.724;23.308;2022-09-02T11:28:40;6.27;;;4.83;;
8291;SDS011;4184;42.724;23.308;2022-09-02T11:31:16;5.53;;;5.03;;
8291;SDS011;4184;42.724;23.308;2022-09-02T11:33:51;5.47;;;4.97;;
8291;SDS011;4184;42.724;23.308;2022-09-02T11:36:23;5.00;;;4.60;;
8291;SDS011;4184;42.724;23.308;2022-09-02T11:38:53;5.50;;;5.00;;
8291;SDS011;4184;42.724;23.308;2022-09-02T11:41:30;5.87;;;5.37;;
8291;SDS011;4184;42.724;23.308;2022-09-02T11:44:22;6.27;;;5.57;;
8291;SDS011;4184;42.724;23.308;2022-09-02T11:47:08;5.47;;;5.00;;
8291;SDS011;4184;42.724;23.308;2022-09-02T11:50:04;5.93;;;5.27;;
8291;SDS011;4184;42.724;23.308;2022-09-02T11:52:50;6.00;;;5.50;;
8291;SDS011;4184;42.724;23.308;2022-09-02T11:55:30;6.83;;;6.00;;
8291;SDS011;4184;42.724;23.308;2022-09-02T11:58:01;6.43;;;5.83;;
8291;SDS011;4184;42.724;23.308;2022-09-02T12:00:30;6.40;;;5.80;;
8291;SDS011;4184;42.724;23.308;2022-09-02T12:03:13;5.90;;;5.40;;
8291;SDS011;4184;42.724;23.308;2022-09-02T12:05:48;6.80;;;6.17;;
8291;SDS011;4184;42.724;23.308;2022-09-02T12:11:41;6.07;;;5.57;;
8291;SDS011;4184;42.724;23.308;2022-09-02T12:17:37;6.50;;;5.87;;
8291;SDS011;4184;42.724;23.308;2022-09-02T12:29:31;6.03;;;5.53;;
8291;SDS011;4184;42.724;23.308;2022-09-02T12:32:04;6.77;;;6.17;;
8291;SDS011;4184;42.724;23.308;2022-09-02T12:34:53;7.33;;;6.40;;
8291;SDS011;4184;42.724;23.308;2022-09-02T12:40:47;8.10;;;7.20;;
8291;SDS011;4184;42.724;23.308;2022-09-02T12:43:35;9.10;;;8.20;;
8291;SDS011;4184;42.724;23.308;2022-09-02T12:46:16;10.80;;;9.80;;
8291;SDS011;4184;42.724;23.308;2022-09-02T12:48:57;10.33;;;9.43;;
8291;SDS011;4184;42.724;23.308;2022-09-02T12:51:56;10.03;;;9.13;;
8291;SDS011;4184;42.724;23.308;2022-09-02T12:54:39;9.93;;;8.93;;
8291;SDS011;4184;42.724;23.308;2022-09-02T12:57:16;9.80;;;8.77;;
8291;SDS011;4184;42.724;23.308;2022-09-02T13:00:07;9.00;;;8.17;;
8291;SDS011;4184;42.724;23.308;2022-09-02T13:02:47;9.30;;;8.40;;
8291;SDS011;4184;42.724;23.308;2022-09-02T13:05:28;9.37;;;8.50;;
8291;SDS011;4184;42.724;23.308;2022-09-02T13:17:53;8.80;;;7.90;;
8291;SDS011;4184;42.724;23.308;2022-09-02T13:20:58;9.77;;;8.77;;
8291;SDS011;4184;42.724;23.308;2022-09-02T13:27:12;12.13;;;9.40;;
8291;SDS011;4184;42.724;23.308;2022-09-02T13:32:57;9.67;;;8.60;;
8291;SDS011;4184;42.724;23.308;2022-09-02T13:35:39;9.97;;;8.03;;
8291;SDS011;4184;42.724;23.308;2022-09-02T13:38:10;8.67;;;7.87;;
8291;SDS011;4184;42.724;23.308;2022-09-02T13:40:39;8.90;;;8.10;;
8291;SDS011;4184;42.724;23.308;2022-09-02T13:43:15;8.93;;;8.03;;
8291;SDS011;4184;42.724;23.308;2022-09-02T13:45:46;8.60;;;7.90;;
8291;SDS011;4184;42.724;23.308;2022-09-02T13:48:18;10.20;;;9.20;;
8291;SDS011;4184;42.724;23.308;2022-09-02T13:50:48;8.77;;;7.93;;
8291;SDS011;4184;42.724;23.308;2022-09-02T13:53:20;9.37;;;8.47;;
8291;SDS011;4184;42.724;23.308;2022-09-02T13:55:59;9.47;;;8.57;;
8291;SDS011;4184;42.724;23.308;2022-09-02T13:58:33;10.07;;;9.07;;
8291;SDS011;4184;42.724;23.308;2022-09-02T14:01:18;10.50;;;9.40;;
8291;SDS011;4184;42.724;23.308;2022-09-02T14:03:48;9.43;;;8.53;;
8291;SDS011;4184;42.724;23.308;2022-09-02T14:06:17;10.83;;;9.73;;
8291;SDS011;4184;42.724;23.308;2022-09-02T14:08:48;11.40;;;9.73;;
8291;SDS011;4184;42.724;23.308;2022-09-02T14:11:19;11.47;;;10.27;;
8291;SDS011;4184;42.724;23.308;2022-09-02T14:13:48;12.93;;;11.47;;
8291;SDS011;4184;42.724;23.308;2022-09-02T14:16:25;11.50;;;10.07;;
8291;SDS011;4184;42.724;23.308;2022-09-02T14:19:04;12.67;;;11.37;;
8291;SDS011;4184;42.724;23.308;2022-09-02T14:21:45;17.50;;;12.00;;
8291;SDS011;4184;42.724;23.308;2022-09-02T14:24:14;14.70;;;11.00;;
8291;SDS011;4184;42.724;23.308;2022-09-02T14:26:45;13.20;;;11.80;;
8291;SDS011;4184;42.724;23.308;2022-09-02T14:29:16;13.17;;;11.50;;
8291;SDS011;4184;42.724;23.308;2022-09-02T14:34:38;13.13;;;11.83;;
8291;SDS011;4184;42.724;23.308;2022-09-02T14:37:15;12.73;;;10.43;;
8291;SDS011;4184;42.724;23.308;2022-09-02T14:39:52;12.23;;;9.23;;
8291;SDS011;4184;42.724;23.308;2022-09-02T14:42:29;11.10;;;9.23;;
8291;SDS011;4184;42.724;23.308;2022-09-02T14:44:58;10.40;;;8.23;;
8291;SDS011;4184;42.724;23.308;2022-09-02T14:47:31;9.10;;;8.20;;
8291;SDS011;4184;42.724;23.308;2022-09-02T14:50:04;10.37;;;8.07;;
8291;SDS011;4184;42.724;23.308;2022-09-02T14:52:44;7.97;;;7.27;;
8291;SDS011;4184;42.724;23.308;2022-09-02T14:58:09;6.70;;;6.00;;
8291;SDS011;4184;42.724;23.308;2022-09-02T15:00:36;7.27;;;6.47;;
8291;SDS011;4184;42.724;23.308;2022-09-02T15:03:05;6.97;;;6.17;;
8291;SDS011;4184;42.724;23.308;2022-09-02T15:05:34;6.20;;;5.60;;
8291;SDS011;4184;42.724;23.308;2022-09-02T15:08:02;5.63;;;5.13;;
8291;SDS011;4184;42.724;23.308;2022-09-02T15:10:31;5.90;;;5.30;;
8291;SDS011;4184;42.724;23.308;2022-09-02T15:12:58;5.93;;;5.40;;
8291;SDS011;4184;42.724;23.308;2022-09-02T15:15:26;5.90;;;5.30;;
8291;SDS011;4184;42.724;23.308;2022-09-02T15:17:56;6.33;;;5.60;;
8291;SDS011;4184;42.724;23.308;2022-09-02T15:20:30;6.57;;;5.97;;
8291;SDS011;4184;42.724;23.308;2022-09-02T15:23:03;7.60;;;5.47;;
8291;SDS011;4184;42.724;23.308;2022-09-02T15:25:33;5.40;;;4.90;;
8291;SDS011;4184;42.724;23.308;2022-09-02T15:28:22;5.73;;;5.23;;
8291;SDS011;4184;42.724;23.308;2022-09-02T15:30:55;5.80;;;5.30;;
8291;SDS011;4184;42.724;23.308;2022-09-02T15:33:24;5.70;;;5.20;;
8291;SDS011;4184;42.724;23.308;2022-09-02T15:35:54;5.73;;;5.17;;
8291;SDS011;4184;42.724;23.308;2022-09-02T15:38:37;5.97;;;5.20;;
8291;SDS011;4184;42.724;23.308;2022-09-02T15:41:23;6.27;;;5.07;;
8291;SDS011;4184;42.724;23.308;2022-09-02T15:43:59;7.30;;;6.33;;
8291;SDS011;4184;42.724;23.308;2022-09-02T15:46:41;8.97;;;6.47;;
8291;SDS011;4184;42.724;23.308;2022-09-02T15:49:20;7.60;;;6.07;;
8291;SDS011;4184;42.724;23.308;2022-09-02T15:51:58;7.37;;;6.57;;
8291;SDS011;4184;42.724;23.308;2022-09-02T15:54:33;8.00;;;6.77;;
8291;SDS011;4184;42.724;23.308;2022-09-02T15:57:26;8.33;;;6.33;;
8291;SDS011;4184;42.724;23.308;2022-09-02T16:00:00;6.60;;;5.97;;
8291;SDS011;4184;42.724;23.308;2022-09-02T16:02:31;6.10;;;5.50;;
8291;SDS011;4184;42.724;23.308;2022-09-02T16:04:58;6.10;;;5.50;;
8291;SDS011;4184;42.724;23.308;2022-09-02T16:10:43;6.90;;;6.20;;
8291;SDS011;4184;42.724;23.308;2022-09-02T16:13:28;6.60;;;5.90;;
8291;SDS011;4184;42.724;23.308;2022-09-02T16:15:58;7.10;;;6.50;;
8291;SDS011;4184;42.724;23.308;2022-09-02T16:18:34;6.50;;;5.70;;